Time;durP1;ratioP1;P1;durP2;ratioP2;P2;SDS_P1;SDS_P2;PMS_P1;PMS_P2;Temp;Humidity;BMP_temperature;BMP_pressure;BME280_temperature;BME280_humidity;BME280_pressure;Samples;Min_cycle;Max_cycle;Signal;HPM_P1;HPM_P2
2022/05/21 00:01:41;;;;;;;4.55;1.70;;;19.00;94.70;;;;;;6270332;23;20049;-82
2022/05/21 00:04:43;;;;;;;3.80;1.40;;;18.90;94.70;;;;;;6264223;28;20068;-82
2022/05/21 00:07:45;;;;;;;4.13;1.83;;;18.80;94.70;;;;;;6262469;28;20061;-82
2022/05/21 00:10:48;;;;;;;5.90;2.05;;;18.70;94.70;;;;;;6260085;28;20049;-83
2022/05/21 00:13:51;;;;;;;7.32;1.88;;;18.60;94.70;;;;;;6258458;28;20091;-82
2022/05/21 00:16:52;;;;;;;2.95;1.65;;;18.60;94.80;;;;;;6258422;28;20046;-83
2022/05/21 00:19:54;;;;;;;4.53;2.17;;;18.50;94.70;;;;;;6258595;28;20055;-83
2022/05/21 00:22:56;;;;;;;4.03;2.08;;;18.50;94.70;;;;;;6259406;28;20053;-82
2022/05/21 00:26:02;;;;;;;6.13;1.98;;;18.40;94.80;;;;;;6260242;28;20037;-83
2022/05/21 00:29:04;;;;;;;8.00;1.75;;;18.30;94.80;;;;;;6259331;28;20128;-83
2022/05/21 00:32:06;;;;;;;2.47;1.60;;;18.20;94.80;;;;;;6259465;28;20042;-82
2022/05/21 00:35:10;;;;;;;5.60;2.13;;;18.10;94.80;;;;;;6264714;28;20505;-83
2022/05/21 00:38:11;;;;;;;5.25;2.03;;;18.10;94.80;;;;;;6264428;28;20041;-82
2022/05/21 00:41:17;;;;;;;3.85;2.17;;;18.00;94.70;;;;;;6265999;28;20407;-83
2022/05/21 00:44:19;;;;;;;5.75;1.98;;;18.00;94.80;;;;;;6265223;28;20548;-83
2022/05/21 00:47:20;;;;;;;3.15;1.83;;;17.90;94.80;;;;;;6266602;28;20045;-82
2022/05/21 00:50:28;;;;;;;3.53;1.70;;;17.80;94.80;;;;;;6267641;28;20052;-84
2022/05/21 00:53:30;;;;;;;4.23;1.67;;;17.70;94.70;;;;;;6266950;28;20053;-82
2022/05/21 00:56:39;;;;;;;5.57;1.73;;;17.60;94.70;;;;;;6265940;28;20288;-83
2022/05/21 00:59:47;;;;;;;6.32;1.90;;;17.50;94.80;;;;;;6266175;28;20084;-82
2022/05/21 01:02:53;;;;;;;5.57;2.08;;;17.50;94.70;;;;;;6266726;28;20049;-82
2022/05/21 01:05:55;;;;;;;4.05;2.05;;;17.40;94.70;;;;;;6265686;28;20546;-82
2022/05/21 01:08:57;;;;;;;2.10;1.30;;;17.30;94.60;;;;;;6261440;28;20112;-82
2022/05/21 01:12:02;;;;;;;2.45;1.77;;;17.20;94.70;;;;;;6263405;28;20053;-83
2022/05/21 01:15:07;;;;;;;3.53;1.85;;;17.20;94.80;;;;;;6264045;28;20049;-83
2022/05/21 01:18:10;;;;;;;4.95;1.85;;;17.10;94.80;;;;;;6265831;28;20049;-83
2022/05/21 01:21:11;;;;;;;4.55;1.50;;;17.00;94.80;;;;;;6267403;28;20555;-83
2022/05/21 01:24:15;;;;;;;2.97;1.92;;;17.00;94.80;;;;;;6265943;28;20048;-84
2022/05/21 01:27:17;;;;;;;6.03;2.13;;;16.90;94.80;;;;;;6266863;28;20076;-81
2022/05/21 01:30:21;;;;;;;8.27;1.75;;;16.80;94.80;;;;;;6266252;28;20140;-81
2022/05/21 01:33:26;;;;;;;8.80;1.70;;;16.80;94.70;;;;;;6266611;28;20133;-83
2022/05/21 01:36:27;;;;;;;7.60;2.00;;;16.70;94.70;;;;;;6258388;28;20271;-82
2022/05/21 01:39:30;;;;;;;8.82;2.10;;;16.70;94.90;;;;;;6259241;28;20050;-82
2022/05/21 01:42:33;;;;;;;3.90;1.90;;;16.60;94.60;;;;;;6258407;28;20041;-83
2022/05/21 01:45:34;;;;;;;4.32;2.05;;;16.60;94.60;;;;;;6258112;28;20042;-83
2022/05/21 01:48:36;;;;;;;3.80;1.65;;;16.50;94.50;;;;;;6258318;28;20053;-82
2022/05/21 01:51:38;;;;;;;5.15;2.47;;;16.50;94.30;;;;;;6259213;28;20045;-84
2022/05/21 01:54:42;;;;;;;2.85;1.77;;;16.40;94.20;;;;;;6256886;28;20049;-83
2022/05/21 01:57:43;;;;;;;5.90;2.17;;;16.40;94.00;;;;;;6254389;28;20420;-82
2022/05/21 02:00:46;;;;;;;2.45;1.55;;;16.40;93.90;;;;;;6258403;28;20059;-83
2022/05/21 02:03:48;;;;;;;2.70;1.75;;;16.30;94.20;;;;;;6247961;28;20113;-84
2022/05/21 02:06:50;;;;;;;3.75;1.85;;;16.30;93.80;;;;;;6248036;28;20053;-86
2022/05/21 02:09:54;;;;;;;2.92;1.77;;;16.20;93.70;;;;;;6250771;28;20045;-86
2022/05/21 02:12:55;;;;;;;2.70;2.40;;;16.20;93.70;;;;;;6251787;28;20057;-88
2022/05/21 02:15:57;;;;;;;28.60;4.22;;;16.10;93.60;;;;;;6249607;28;20049;-83
2022/05/21 02:19:01;;;;;;;4.82;2.90;;;16.10;93.50;;;;;;6247702;28;20045;-83
2022/05/21 02:22:02;;;;;;;9.45;2.42;;;16.10;93.60;;;;;;6248118;28;20096;-83
2022/05/21 02:25:07;;;;;;;3.38;2.30;;;16.10;93.60;;;;;;6247673;28;20436;-85
2022/05/21 02:28:09;;;;;;;8.88;3.53;;;16.00;93.50;;;;;;6247898;28;20041;-82
2022/05/21 02:31:11;;;;;;;3.03;2.45;;;16.00;93.40;;;;;;6251035;28;20053;-84
2022/05/21 02:34:13;;;;;;;4.50;2.50;;;15.90;93.30;;;;;;6251793;28;20057;-84
2022/05/21 02:40:35;;;;;;;5.15;2.70;;;15.80;93.40;;;;;;6249188;28;20046;-83
2022/05/21 02:43:37;;;;;;;6.97;3.17;;;15.70;93.40;;;;;;6249517;28;20136;-84
2022/05/21 02:46:39;;;;;;;3.05;2.45;;;15.70;93.40;;;;;;6249395;28;20041;-84
2022/05/21 02:49:40;;;;;;;3.40;2.35;;;15.70;93.40;;;;;;6249258;28;20057;-84
2022/05/21 02:52:42;;;;;;;3.65;2.47;;;15.60;93.50;;;;;;6250274;28;20397;-83
2022/05/21 02:55:46;;;;;;;7.28;3.05;;;15.50;93.50;;;;;;6253711;28;20485;-84
2022/05/21 02:58:48;;;;;;;4.05;2.75;;;15.50;93.60;;;;;;6254734;28;20057;-83
2022/05/21 03:01:50;;;;;;;4.45;2.30;;;15.40;93.70;;;;;;6254895;28;20109;-84
2022/05/21 03:04:51;;;;;;;2.70;2.00;;;15.40;93.80;;;;;;6255232;28;20128;-84
2022/05/21 03:07:54;;;;;;;9.48;3.08;;;15.30;94.00;;;;;;6259644;28;20045;-85
2022/05/21 03:10:57;;;;;;;5.03;3.35;;;15.30;94.40;;;;;;6258105;28;20065;-84
2022/05/21 03:13:59;;;;;;;4.43;2.75;;;15.20;94.30;;;;;;6252936;28;20077;-84
2022/05/21 03:17:00;;;;;;;4.50;3.10;;;15.20;94.60;;;;;;6253622;28;20124;-84
2022/05/21 03:20:03;;;;;;;6.85;3.58;;;15.10;94.80;;;;;;6254980;28;20050;-83
2022/05/21 03:23:06;;;;;;;5.75;4.07;;;15.10;95.10;;;;;;6258031;28;20496;-84
2022/05/21 03:26:09;;;;;;;5.75;3.78;;;15.00;95.30;;;;;;6256138;28;20104;-84
2022/05/21 03:29:11;;;;;;;7.57;4.35;;;15.00;95.40;;;;;;6257807;28;20124;-84
2022/05/21 03:32:13;;;;;;;5.75;3.72;;;15.00;95.60;;;;;;6262206;28;20101;-84
2022/05/21 03:35:16;;;;;;;8.95;3.88;;;15.00;95.70;;;;;;6266584;28;20049;-84
2022/05/21 03:38:19;;;;;;;7.38;4.10;;;15.00;95.70;;;;;;6266323;28;20053;-84
2022/05/21 03:41:22;;;;;;;7.50;4.15;;;15.00;95.70;;;;;;6266851;28;20044;-84
2022/05/21 03:44:25;;;;;;;6.32;3.45;;;15.00;95.80;;;;;;6266279;28;20129;-84
2022/05/21 03:47:27;;;;;;;11.18;4.03;;;15.00;95.90;;;;;;6267540;28;20060;-84
2022/05/21 03:50:31;;;;;;;8.25;4.63;;;15.00;95.80;;;;;;6265784;28;20465;-84
2022/05/21 03:53:33;;;;;;;6.30;4.32;;;15.00;95.80;;;;;;6266841;28;20045;-84
2022/05/21 03:56:36;;;;;;;8.45;3.92;;;15.00;95.70;;;;;;6266954;28;20053;-85
2022/05/21 03:59:38;;;;;;;5.97;4.90;;;15.00;95.70;;;;;;6267398;28;20068;-84
2022/05/21 04:02:40;;;;;;;7.30;4.82;;;15.00;95.80;;;;;;6262942;28;20409;-84
2022/05/21 04:05:42;;;;;;;6.28;3.92;;;15.00;95.80;;;;;;6265306;28;20130;-84
2022/05/21 04:08:44;;;;;;;8.23;4.38;;;15.00;95.70;;;;;;6266021;28;20041;-84
2022/05/21 04:11:47;;;;;;;7.35;4.18;;;15.10;95.60;;;;;;6264799;28;20045;-85
2022/05/21 04:14:48;;;;;;;6.95;4.30;;;15.10;95.50;;;;;;6263363;28;20504;-84
2022/05/21 04:17:50;;;;;;;11.32;3.65;;;15.10;95.40;;;;;;6264067;28;20049;-84
2022/05/21 04:20:52;;;;;;;6.80;3.95;;;15.20;95.30;;;;;;6265412;28;20083;-85
2022/05/21 04:23:54;;;;;;;6.60;3.92;;;15.30;95.10;;;;;;6265523;28;20049;-83
2022/05/21 04:26:57;;;;;;;8.55;3.90;;;15.40;95.00;;;;;;6266940;28;20073;-84
2022/05/21 04:29:59;;;;;;;4.43;3.10;;;15.60;94.80;;;;;;6262893;28;20045;-86
2022/05/21 04:33:00;;;;;;;6.13;3.22;;;15.80;94.60;;;;;;6264932;28;20064;-85
2022/05/21 04:36:21;;;;;;;7.82;3.65;;;15.90;94.30;;;;;;6266025;28;20165;-84
2022/05/21 04:39:23;;;;;;;4.57;3.08;;;16.10;94.20;;;;;;6266690;28;20497;-84
2022/05/21 04:42:26;;;;;;;5.75;3.28;;;16.50;93.60;;;;;;6265934;28;20056;-86
2022/05/21 04:45:28;;;;;;;6.47;3.95;;;16.70;93.30;;;;;;6266033;28;20107;-85
2022/05/21 04:48:30;;;;;;;7.07;2.28;;;16.90;93.00;;;;;;6264672;28;20095;-85
2022/05/21 04:51:35;;;;;;;3.72;2.45;;;17.50;92.40;;;;;;6266759;28;20057;-84
2022/05/21 04:54:38;;;;;;;6.45;2.15;;;18.30;91.30;;;;;;6264375;28;20565;-84
2022/05/21 04:57:41;;;;;;;5.15;1.95;;;19.40;88.80;;;;;;6262554;28;20050;-86
2022/05/21 05:00:43;;;;;;;3.75;1.75;;;20.70;84.30;;;;;;6264439;28;20053;-85
2022/05/21 05:03:45;;;;;;;4.38;1.42;;;22.20;79.70;;;;;;6265165;28;20053;-85
2022/05/21 05:06:46;;;;;;;2.70;1.42;;;24.20;72.60;;;;;;6266686;28;20744;-86
2022/05/21 05:09:48;;;;;;;3.72;1.60;;;26.10;65.80;;;;;;6266577;28;20072;-85
2022/05/21 05:12:51;;;;;;;3.42;1.60;;;27.40;61.40;;;;;;6266377;28;20061;-86
2022/05/21 05:15:53;;;;;;;8.45;1.27;;;27.70;58.10;;;;;;6267721;28;20109;-86
2022/05/21 05:18:55;;;;;;;3.10;1.08;;;28.10;55.80;;;;;;6269784;28;20072;-84
2022/05/21 05:21:57;;;;;;;4.80;1.40;;;28.60;53.90;;;;;;6271919;28;20087;-85
2022/05/21 05:24:58;;;;;;;2.17;1.25;;;29.50;51.70;;;;;;6273547;28;20060;-84
2022/05/21 05:28:02;;;;;;;5.70;1.33;;;30.70;47.90;;;;;;6259007;28;20414;-85
2022/05/21 05:31:04;;;;;;;4.90;1.98;;;32.00;44.90;;;;;;6257319;28;20049;-86
2022/05/21 05:34:06;;;;;;;0.98;0.90;;;33.10;41.10;;;;;;6257362;28;20052;-85
2022/05/21 05:37:07;;;;;;;3.50;1.13;;;33.70;39.70;;;;;;6256790;28;20512;-85
2022/05/21 05:40:12;;;;;;;1.33;0.75;;;34.30;38.10;;;;;;6256637;28;20056;-85
2022/05/21 05:43:18;;;;;;;4.65;1.35;;;34.60;37.10;;;;;;6253281;28;20432;-86
2022/05/21 05:46:19;;;;;;;4.25;1.15;;;35.10;36.30;;;;;;6253756;28;20041;-86
2022/05/21 05:49:21;;;;;;;4.45;1.00;;;35.70;35.10;;;;;;6255851;28;20085;-86
2022/05/21 05:52:23;;;;;;;1.95;0.73;;;35.40;34.20;;;;;;6255552;28;20046;-86
2022/05/21 05:55:25;;;;;;;4.63;0.90;;;35.20;34.40;;;;;;6255145;28;20084;-87
2022/05/21 06:01:47;;;;;;;2.78;0.57;;;35.60;33.90;;;;;;6256808;28;20424;-86
2022/05/21 06:04:49;;;;;;;2.92;0.80;;;35.90;33.10;;;;;;6272547;23;20053;-83
2022/05/21 06:07:53;;;;;;;1.35;0.75;;;36.10;33.20;;;;;;6247334;28;20183;-82
2022/05/21 06:10:54;;;;;;;5.13;1.55;;;36.50;32.30;;;;;;6247474;28;20416;-82
2022/05/21 06:13:57;;;;;;;1.65;0.65;;;37.10;31.70;;;;;;6248564;28;20045;-83
2022/05/21 06:16:59;;;;;;;5.47;0.93;;;37.50;31.40;;;;;;6248534;28;20172;-82
2022/05/21 06:20:01;;;;;;;1.52;0.55;;;37.50;31.10;;;;;;6252513;28;20051;-83
2022/05/21 06:23:03;;;;;;;2.95;0.63;;;37.20;30.90;;;;;;6258523;28;20109;-83
2022/05/21 06:26:06;;;;;;;3.72;1.02;;;36.50;31.00;;;;;;6261679;28;20069;-83
2022/05/21 06:29:09;;;;;;;3.72;0.60;;;34.40;32.70;;;;;;6258594;28;20060;-82
2022/05/21 06:32:10;;;;;;;5.32;1.02;;;31.90;35.30;;;;;;6252346;28;20057;-82
2022/05/21 06:35:14;;;;;;;2.05;0.88;;;30.40;38.10;;;;;;6251574;28;20041;-82
2022/05/21 06:38:17;;;;;;;1.45;0.45;;;30.10;38.90;;;;;;6253950;28;20042;-83
2022/05/21 06:41:19;;;;;;;3.47;0.73;;;30.80;38.20;;;;;;6264561;28;20045;-82
2022/05/21 06:44:25;;;;;;;2.95;0.70;;;30.90;38.20;;;;;;6261398;28;20042;-82
2022/05/21 06:47:28;;;;;;;1.85;0.60;;;31.60;37.50;;;;;;6252744;28;20444;-83
2022/05/21 06:50:30;;;;;;;2.08;0.70;;;33.10;36.40;;;;;;6252563;28;20081;-83
2022/05/21 06:53:31;;;;;;;1.48;0.50;;;34.40;34.20;;;;;;6252478;28;20128;-83
2022/05/21 06:56:33;;;;;;;1.38;0.73;;;34.90;33.50;;;;;;6257528;28;20042;-83
2022/05/21 06:59:36;;;;;;;2.63;0.47;;;35.40;32.60;;;;;;6257774;28;20054;-82
2022/05/21 07:02:40;;;;;;;4.07;0.80;;;34.30;32.40;;;;;;6255409;28;20041;-82
2022/05/21 07:09:00;;;;;;;1.40;0.40;;;33.90;34.30;;;;;;6256827;28;20050;-83
2022/05/21 07:12:03;;;;;;;1.70;0.63;;;35.60;32.80;;;;;;6257287;28;20538;-83
2022/05/21 07:15:08;;;;;;;2.10;0.82;;;37.10;31.30;;;;;;6255269;28;20053;-83
2022/05/21 07:18:12;;;;;;;2.35;0.70;;;37.40;30.40;;;;;;6253074;28;20041;-82
2022/05/21 07:21:15;;;;;;;2.70;0.75;;;35.60;31.70;;;;;;6256503;28;20057;-82
2022/05/21 07:24:17;;;;;;;3.60;0.60;;;33.20;33.70;;;;;;6254312;28;20049;-83
2022/05/21 07:27:19;;;;;;;3.33;0.70;;;31.00;36.40;;;;;;6253500;28;20048;-83
2022/05/21 07:30:22;;;;;;;4.03;0.73;;;31.40;36.70;;;;;;6252509;28;20045;-82
2022/05/21 07:33:24;;;;;;;3.83;0.75;;;33.80;34.10;;;;;;6252934;28;20053;-84
2022/05/21 07:36:25;;;;;;;1.85;0.63;;;33.80;33.00;;;;;;6206350;28;20054;-82
2022/05/21 07:39:27;;;;;;;2.90;0.60;;;31.80;34.60;;;;;;6250000;28;20053;-83
2022/05/21 07:42:29;;;;;;;1.75;0.57;;;31.10;36.10;;;;;;6255909;28;20165;-85
2022/05/21 07:45:38;;;;;;;4.18;0.52;;;30.60;36.90;;;;;;6254188;28;20464;-85
2022/05/21 07:48:40;;;;;;;1.33;0.47;;;31.60;35.80;;;;;;6240718;28;20456;-85
2022/05/21 07:51:42;;;;;;;3.33;0.52;;;33.00;34.40;;;;;;6228199;28;20054;-85
2022/05/21 07:54:44;;;;;;;3.47;0.50;;;33.70;33.20;;;;;;6228515;28;20049;-85
2022/05/21 07:57:46;;;;;;;3.05;0.55;;;32.50;33.30;;;;;;6229080;28;20048;-85
2022/05/21 08:00:49;;;;;;;7.70;1.83;;;32.00;34.30;;;;;;6228499;28;20052;-86
2022/05/21 08:03:51;;;;;;;8.45;1.10;;;33.30;33.20;;;;;;6228744;28;20137;-85
2022/05/21 08:06:53;;;;;;;7.65;0.63;;;34.60;32.20;;;;;;6226123;28;20058;-85
2022/05/21 08:09:55;;;;;;;1.42;0.35;;;35.60;30.80;;;;;;6242957;28;20049;-83
2022/05/21 08:12:57;;;;;;;3.92;0.40;;;36.40;30.10;;;;;;6252949;28;20467;-83
2022/05/21 08:16:00;;;;;;;1.80;0.47;;;36.70;29.90;;;;;;6252046;28;20108;-86
2022/05/21 08:19:04;;;;;;;4.45;0.70;;;37.00;29.60;;;;;;6250363;28;20052;-86
2022/05/21 08:28:45;;;;;;;2.20;0.43;;;37.70;29.40;;;;;;6251951;28;20512;-83
2022/05/21 08:31:48;;;;;;;5.03;0.57;;;37.90;28.80;;;;;;6247156;28;20056;-88
2022/05/21 08:34:52;;;;;;;5.72;1.20;;;37.70;28.60;;;;;;6251463;28;20061;-84
2022/05/21 08:37:54;;;;;;;2.33;0.30;;;37.70;28.90;;;;;;6252362;28;20048;-86
2022/05/21 08:41:02;;;;;;;6.32;0.50;;;37.70;29.00;;;;;;6249845;28;20393;-85
2022/05/21 08:44:07;;;;;;;2.60;0.50;;;37.80;29.10;;;;;;6250902;28;20397;-80
2022/05/21 08:47:20;;;;;;;0.65;0.35;;;38.10;28.90;;;;;;6251522;28;20061;-81
2022/05/21 08:50:23;;;;;;;2.50;0.70;;;38.30;28.50;;;;;;6250715;28;20042;-84
2022/05/21 08:53:28;;;;;;;1.95;0.22;;;38.60;28.50;;;;;;6251846;28;20183;-81
2022/05/21 08:56:31;;;;;;;3.15;0.40;;;38.60;28.20;;;;;;6252595;28;20095;-81
2022/05/21 08:59:44;;;;;;;3.30;0.57;;;37.40;28.60;;;;;;6252644;28;20133;-82
2022/05/21 09:02:47;;;;;;;5.57;0.32;;;37.20;28.80;;;;;;6252739;28;20054;-82
2022/05/21 09:05:57;;;;;;;2.17;0.63;;;37.20;28.80;;;;;;6253565;28;20050;-82
2022/05/21 09:09:04;;;;;;;1.88;1.05;;;37.40;28.60;;;;;;6252502;28;20132;-82
2022/05/21 09:12:14;;;;;;;3.03;0.57;;;37.30;28.70;;;;;;6251804;28;20041;-82
2022/05/21 09:18:39;;;;;;;2.20;0.77;;;36.60;28.90;;;;;;6227995;28;20057;-82
2022/05/21 09:21:46;;;;;;;4.97;0.90;;;36.20;30.10;;;;;;6227448;28;20046;-82
2022/05/21 09:24:50;;;;;;;2.25;0.45;;;36.00;29.60;;;;;;6226409;28;20069;-84
2022/05/21 09:28:02;;;;;;;2.88;0.50;;;35.50;29.60;;;;;;6225145;28;20473;-82
2022/05/21 09:31:05;;;;;;;3.88;0.57;;;35.00;30.30;;;;;;6209005;28;20081;-82
2022/05/21 09:34:23;;;;;;;1.27;0.57;;;34.80;30.70;;;;;;6227813;28;20052;-81
2022/05/21 09:37:29;;;;;;;1.70;0.60;;;34.30;30.50;;;;;;6218858;28;20054;-83
2022/05/21 09:40:35;;;;;;;2.05;0.30;;;33.00;31.70;;;;;;6250620;28;20128;-83
2022/05/21 09:47:10;;;;;;;2.95;0.43;;;33.20;32.80;;;;;;6277947;28;20045;-83
2022/05/21 09:50:13;;;;;;;2.88;0.50;;;33.40;31.70;;;;;;6258413;28;20044;-83
2022/05/21 09:53:30;;;;;;;4.63;0.45;;;33.00;32.50;;;;;;6235960;28;20056;-83
2022/05/21 09:56:34;;;;;;;1.50;0.32;;;33.50;32.30;;;;;;6230398;28;20101;-83
2022/05/21 09:59:40;;;;;;;1.80;0.70;;;33.90;31.50;;;;;;6227428;28;20792;-83
2022/05/21 10:02:45;;;;;;;1.83;0.55;;;33.50;31.50;;;;;;6227538;28;20137;-83
2022/05/21 10:05:53;;;;;;;3.22;0.25;;;32.70;32.20;;;;;;6226331;28;20064;-83
2022/05/21 10:12:24;;;;;;;3.00;0.50;;;30.70;34.80;;;;;;6245947;28;20045;-84
2022/05/21 10:15:30;;;;;;;3.13;0.50;;;30.10;35.40;;;;;;6254575;28;20539;-84
2022/05/21 10:18:38;;;;;;;3.05;0.60;;;29.70;36.00;;;;;;6258330;28;20049;-82
2022/05/21 10:21:55;;;;;;;2.80;0.52;;;29.60;36.40;;;;;;6255962;28;20411;-83
2022/05/21 10:25:03;;;;;;;3.67;0.43;;;29.40;36.20;;;;;;6256299;28;20512;-83
2022/05/21 10:28:26;;;;;;;3.08;0.60;;;29.50;36.10;;;;;;6253689;28;20049;-83
2022/05/21 10:31:43;;;;;;;2.15;0.52;;;29.40;37.20;;;;;;6258693;28;20428;-84
2022/05/21 10:34:56;;;;;;;2.92;0.57;;;29.60;36.40;;;;;;6257394;28;20049;-85
2022/05/21 10:38:07;;;;;;;7.13;0.70;;;29.70;36.20;;;;;;6258603;28;20064;-83
2022/05/21 10:41:17;;;;;;;3.15;0.20;;;29.90;35.90;;;;;;6266803;28;20109;-86
2022/05/21 10:44:31;;;;;;;1.15;0.38;;;30.10;35.00;;;;;;6260650;28;20130;-83
2022/05/21 10:47:50;;;;;;;2.92;0.70;;;30.20;35.20;;;;;;6258267;28;20512;-83
2022/05/21 10:50:55;;;;;;;4.72;0.60;;;30.20;35.50;;;;;;6255992;28;20049;-83
2022/05/21 10:54:24;;;;;;;3.35;0.50;;;30.00;36.00;;;;;;6255863;28;20041;-83
2022/05/21 10:57:33;;;;;;;;;;;30.00;35.40;;;;;;6257720;28;20076;-84
2022/05/21 11:00:44;;;;;;;1.98;0.50;;;30.10;35.40;;;;;;6258035;28;19975;-83
2022/05/21 11:04:18;;;;;;;3.05;0.50;;;30.10;35.80;;;;;;6253721;28;20056;-83
2022/05/21 11:07:41;;;;;;;3.78;0.22;;;29.90;35.20;;;;;;6246466;28;20579;-83
2022/05/21 11:10:51;;;;;;;3.47;0.60;;;30.00;36.10;;;;;;6254751;28;20132;-84
2022/05/21 11:17:51;;;;;;;4.22;0.40;;;30.40;35.60;;;;;;6250553;28;20049;-83
2022/05/21 11:21:00;;;;;;;4.53;0.50;;;30.30;34.70;;;;;;6255885;28;20056;-85
2022/05/21 11:24:09;;;;;;;4.75;0.38;;;30.30;34.90;;;;;;6256349;28;20052;-83
2022/05/21 11:27:21;;;;;;;1.55;0.30;;;30.40;34.90;;;;;;6255175;28;20080;-84
2022/05/21 11:30:23;;;;;;;3.13;0.28;;;30.50;34.90;;;;;;6253391;28;20041;-83
2022/05/21 11:40:30;;;;;;;4.47;0.57;;;30.40;34.60;;;;;;6244232;28;20053;-83
2022/05/21 11:47:49;;;;;;;2.75;0.25;;;30.70;33.80;;;;;;6253374;28;20049;-84
2022/05/21 11:51:24;;;;;;;1.33;0.30;;;30.90;33.80;;;;;;6251598;28;20449;-83
2022/05/21 11:58:56;;;;;;;2.65;0.45;;;31.00;33.10;;;;;;6250092;28;20037;-85
2022/05/21 12:02:24;;;;;;;3.50;0.43;;;31.10;33.60;;;;;;6251242;28;20041;-85
2022/05/21 12:09:31;;;;;;;2.25;0.30;;;31.20;33.50;;;;;;6229769;28;20124;-85
2022/05/21 12:12:34;;;;;;;1.60;0.20;;;31.20;34.10;;;;;;6243710;28;20049;-84
2022/05/21 12:15:47;;;;;;;1.13;0.32;;;31.40;33.40;;;;;;6249992;28;20117;-84
2022/05/21 12:22:06;;;;;;;0.28;0.20;;;31.50;32.60;;;;;;6253810;28;20048;-85
2022/05/21 12:25:14;;;;;;;0.70;0.30;;;31.40;32.50;;;;;;6250986;28;20059;-83
2022/05/21 12:28:16;;;;;;;2.47;0.52;;;31.40;32.40;;;;;;6249251;28;20048;-84
2022/05/21 12:31:24;;;;;;;1.13;0.25;;;31.30;32.80;;;;;;6251996;28;20140;-83
2022/05/21 12:40:51;;;;;;;0.80;0.10;;;31.80;32.30;;;;;;6251155;28;20111;-83
2022/05/21 12:48:28;;;;;;;3.03;0.32;;;32.20;32.40;;;;;;6254525;28;20645;-84
2022/05/21 12:51:58;;;;;;;4.72;0.50;;;32.50;32.10;;;;;;6250074;28;20365;-84
2022/05/21 12:55:36;;;;;;;1.27;0.30;;;32.70;31.70;;;;;;6249134;28;20046;-84
2022/05/21 12:58:49;;;;;;;2.70;0.25;;;32.70;31.20;;;;;;6248587;28;20702;-84
2022/05/21 13:02:27;;;;;;;1.08;0.50;;;32.80;31.20;;;;;;6239105;28;20050;-84
2022/05/21 13:05:35;;;;;;;2.15;0.35;;;32.80;31.00;;;;;;6266764;28;20060;-84
2022/05/21 13:41:10;;;;;;;1.20;0.30;;;32.50;30.50;;;;;;6199625;28;20133;-84
2022/05/21 13:44:16;;;;;;;1.25;0.40;;;32.50;31.30;;;;;;6184081;28;20050;-83
2022/05/21 13:47:21;;;;;;;2.70;0.20;;;32.50;30.90;;;;;;6175027;28;20138;-83
2022/05/21 13:50:27;;;;;;;1.60;0.30;;;32.50;30.90;;;;;;6174387;28;20038;-82
2022/05/21 13:53:31;;;;;;;3.72;1.63;;;32.40;30.90;;;;;;6174871;28;20521;-83
2022/05/21 13:56:36;;;;;;;0.75;0.30;;;32.60;30.80;;;;;;6175421;28;20047;-83
2022/05/21 13:59:48;;;;;;;2.05;0.40;;;32.60;30.50;;;;;;6180418;28;20055;-84
2022/05/21 14:02:52;;;;;;;2.28;0.32;;;32.50;30.60;;;;;;6176841;28;20561;-84
2022/05/21 14:05:56;;;;;;;2.80;0.38;;;32.50;30.80;;;;;;6175932;28;20057;-83
2022/05/21 14:09:00;;;;;;;1.73;0.40;;;32.40;30.70;;;;;;6176426;28;20099;-83
2022/05/21 14:12:12;;;;;;;2.92;0.90;;;32.40;31.10;;;;;;6178284;28;20059;-83
2022/05/21 14:15:21;;;;;;;2.90;0.30;;;32.40;30.80;;;;;;6187436;28;20051;-84
2022/05/21 14:18:28;;;;;;;3.03;0.45;;;32.10;30.60;;;;;;6178023;28;20059;-83
2022/05/21 14:21:30;;;;;;;2.35;0.10;;;32.00;31.00;;;;;;6179110;28;20043;-83
2022/05/21 14:43:35;;;;;;;2.35;0.32;;;31.50;30.90;;;;;;6173074;28;20047;-83
2022/05/21 14:53:22;;;;;;;2.58;0.40;;;30.70;32.00;;;;;;6506051;23;20053;-83
2022/05/21 14:56:27;;;;;;;1.92;0.65;;;30.40;32.10;;;;;;6223199;28;20077;-84
2022/05/21 14:59:30;;;;;;;1.00;0.22;;;30.30;32.70;;;;;;6222871;28;20168;-83
2022/05/21 15:02:32;;;;;;;1.50;0.35;;;30.20;33.50;;;;;;6222296;28;20524;-83
2022/05/21 15:09:13;;;;;;;3.35;0.38;;;30.10;33.60;;;;;;6201557;28;20506;-83
2022/05/21 15:12:14;;;;;;;0.10;0.10;;;30.00;33.90;;;;;;6222641;28;20132;-84
2022/05/21 15:15:20;;;;;;;1.23;0.30;;;29.70;33.70;;;;;;6221983;28;20454;-83
2022/05/21 15:18:22;;;;;;;2.15;0.40;;;29.70;34.00;;;;;;6226112;28;20421;-84
2022/05/21 15:21:26;;;;;;;1.02;0.47;;;29.50;34.40;;;;;;6227059;28;20109;-83
2022/05/21 15:28:03;;;;;;;4.20;0.90;;;29.70;34.70;;;;;;6218406;28;20054;-83
2022/05/21 15:31:08;;;;;;;3.38;1.65;;;29.80;34.30;;;;;;6226739;28;20139;-85
2022/05/21 15:34:10;;;;;;;4.05;1.70;;;30.10;34.60;;;;;;6226494;28;20046;-83
2022/05/21 15:37:12;;;;;;;4.03;1.73;;;30.30;33.70;;;;;;6226920;28;20092;-83
2022/05/21 15:40:14;;;;;;;0.75;0.30;;;30.40;33.20;;;;;;6225249;28;20058;-82
2022/05/21 15:43:18;;;;;;;2.78;0.40;;;30.50;33.20;;;;;;6225537;28;20050;-81
2022/05/21 15:46:22;;;;;;;0.98;0.40;;;30.70;32.90;;;;;;6226399;28;20042;-82
2022/05/21 15:49:23;;;;;;;5.57;0.63;;;30.90;32.60;;;;;;6226678;28;20046;-82
2022/05/21 15:52:28;;;;;;;0.93;0.20;;;31.10;32.70;;;;;;6225851;28;20053;-81
2022/05/21 15:55:29;;;;;;;0.50;0.30;;;31.20;32.70;;;;;;6223482;28;20056;-81
2022/05/21 15:58:31;;;;;;;2.03;0.40;;;31.20;32.80;;;;;;6201789;28;20046;-84
2022/05/21 16:01:35;;;;;;;0.65;0.38;;;31.10;32.10;;;;;;6201585;28;20114;-80
2022/05/21 16:04:37;;;;;;;1.02;0.30;;;30.90;31.60;;;;;;6202368;28;20050;-85
2022/05/21 16:13:04;;;;;;;2.75;0.50;;;30.50;32.50;;;;;;6110799;29;20051;-84
2022/05/21 16:16:06;;;;;;;0.88;0.25;;;30.40;33.40;;;;;;6173902;28;20054;-83
2022/05/21 16:19:09;;;;;;;0.80;0.20;;;30.20;33.70;;;;;;6233244;28;20044;-83
2022/05/21 16:22:15;;;;;;;1.55;0.22;;;30.10;33.90;;;;;;6232531;28;20053;-83
2022/05/21 16:25:17;;;;;;;0.82;0.30;;;30.00;33.80;;;;;;6237145;28;20134;-82
2022/05/21 16:28:19;;;;;;;0.75;0.17;;;29.80;34.10;;;;;;6232636;28;20100;-83
2022/05/21 16:31:21;;;;;;;2.38;0.30;;;29.70;34.60;;;;;;6226252;28;20180;-83
2022/05/21 16:34:24;;;;;;;2.03;0.43;;;29.50;34.50;;;;;;6227901;28;20111;-82
2022/05/21 16:37:27;;;;;;;1.90;0.35;;;29.30;34.80;;;;;;6231369;28;20083;-81
2022/05/21 16:40:28;;;;;;;0.65;0.13;;;29.10;35.00;;;;;;6231381;28;20069;-83
2022/05/21 16:50:10;;;;;;;2.92;0.50;;;28.30;37.20;;;;;;6204785;28;20104;-83
2022/05/21 16:53:19;;;;;;;1.30;0.60;;;28.20;37.40;;;;;;6202999;28;20505;-83
2022/05/21 16:56:20;;;;;;;2.60;0.50;;;28.10;37.40;;;;;;6204175;28;20054;-83
2022/05/21 16:59:24;;;;;;;1.85;0.50;;;28.00;37.40;;;;;;6201624;28;20068;-85
2022/05/21 17:02:26;;;;;;;2.00;0.65;;;27.80;37.60;;;;;;6207281;28;20096;-83
2022/05/21 17:05:29;;;;;;;3.05;0.70;;;27.60;37.40;;;;;;6213749;28;20054;-82
2022/05/21 17:08:31;;;;;;;2.28;0.50;;;27.40;38.10;;;;;;6217701;28;20042;-83
2022/05/21 17:11:33;;;;;;;4.03;0.50;;;27.20;38.30;;;;;;6204866;28;20050;-83
2022/05/21 17:14:35;;;;;;;1.50;0.70;;;26.90;38.20;;;;;;6203766;28;20047;-83
2022/05/21 17:17:43;;;;;;;0.65;0.40;;;26.60;38.40;;;;;;6210655;28;20057;-83
2022/05/21 17:20:46;;;;;;;1.77;0.60;;;26.40;39.30;;;;;;6210843;28;20054;-83
2022/05/21 17:23:48;;;;;;;1.60;0.40;;;26.30;39.70;;;;;;6199216;28;20046;-83
2022/05/21 17:26:50;;;;;;;1.60;0.47;;;26.10;40.10;;;;;;6200104;28;20050;-82
2022/05/21 17:33:14;;;;;;;3.72;0.77;;;25.80;41.90;;;;;;6198999;28;20196;-83
2022/05/21 17:36:18;;;;;;;5.30;0.77;;;25.60;42.30;;;;;;6199523;28;20102;-83
2022/05/21 17:39:20;;;;;;;5.30;0.43;;;25.50;42.80;;;;;;6198775;28;20038;-84
2022/05/21 17:42:21;;;;;;;2.10;0.50;;;25.50;43.00;;;;;;6194697;28;20053;-83
2022/05/21 17:45:26;;;;;;;2.38;0.45;;;25.40;43.10;;;;;;6198322;28;20137;-83
2022/05/21 17:48:27;;;;;;;1.23;0.73;;;25.30;43.10;;;;;;6199417;28;20057;-83
2022/05/21 17:51:31;;;;;;;1.70;0.40;;;25.20;43.70;;;;;;6199541;28;20046;-83
2022/05/21 17:54:32;;;;;;;0.90;0.40;;;25.10;43.90;;;;;;6199380;28;20145;-84
2022/05/21 17:57:34;;;;;;;2.67;0.70;;;25.00;44.10;;;;;;6199704;28;20054;-82
2022/05/21 18:00:38;;;;;;;0.22;0.20;;;24.90;44.40;;;;;;6199643;28;20046;-82
2022/05/21 18:03:40;;;;;;;2.95;0.65;;;24.90;44.20;;;;;;6583736;23;20046;-81
2022/05/21 18:06:43;;;;;;;1.42;0.28;;;24.80;44.70;;;;;;6234342;28;20052;-83
2022/05/21 18:09:46;;;;;;;2.88;0.50;;;24.60;45.20;;;;;;6236249;28;20049;-85
2022/05/21 18:12:49;;;;;;;3.30;0.60;;;24.50;45.60;;;;;;6227177;28;20131;-82
2022/05/21 18:19:23;;;;;;;2.08;0.98;;;24.30;46.00;;;;;;6225012;28;20042;-82
2022/05/21 18:22:26;;;;;;;2.15;0.73;;;24.20;46.60;;;;;;6225123;28;20141;-83
2022/05/21 18:25:28;;;;;;;3.13;0.60;;;24.10;46.90;;;;;;6224951;28;20104;-82
2022/05/21 18:28:30;;;;;;;2.47;0.47;;;23.90;48.00;;;;;;6225996;28;20611;-83
2022/05/21 18:31:32;;;;;;;2.92;0.90;;;23.90;50.50;;;;;;6227077;28;20373;-82